Faust — SLKQ — position and weather

sailwx.info

Track history (hours):
 
Tides and Currents Weather Stations Pressure Air Temp Water Temp Dewpoint Dewpoint Depression Visibility Wind Speed Wind Dir Waves Ship Positions

Faust

Last reported at 2015-Apr-18 02:31 UTC. Time now 2015-Apr-18 03:28 UTC.
Position N 57°41' E 011°52'.

Length 227.8 m; beam 32.3 m; draft 9.5 m.

Type: Cargo ship. MMSI: 266260000.

Date/timePositionNaut miles runAvg speedWind from/ knotsBaromVisibWave heightAir tempDewpointWater temp
2015-Apr-18 02:31N 57°41' E 011°52'0 0.0
2015-Apr-18 01:31N 57°41' E 011°52'0 0.0
2015-Apr-18 00:31N 57°41' E 011°52'0 0.0
2015-Apr-17 23:31N 57°41' E 011°52'0 0.0
2015-Apr-17 22:31N 57°41' E 011°52'0 0.0
2015-Apr-17 21:31N 57°41' E 011°52'0 0.0
2015-Apr-17 20:31N 57°41' E 011°52'0 0.0
2015-Apr-17 19:31N 57°41' E 011°52'0 0.0
2015-Apr-17 18:31N 57°41' E 011°52'0 0.0
2015-Apr-17 17:31N 57°41' E 011°52'0 0.0
2015-Apr-17 16:31N 57°41' E 011°52'0 0.0
2015-Apr-17 15:31N 57°41' E 011°52'0 0.0
2015-Apr-17 14:31N 57°41' E 011°52'0 0.0
2015-Apr-17 13:31N 57°41' E 011°52'0 0.4
2015-Apr-17 12:33N 57°41' E 011°51'1010.0
2015-Apr-17 11:34N 57°37' E 011°35'1111.1
2015-Apr-17 10:34N 57°41' E 011°16'1514.8
2015-Apr-17 09:34N 57°47' E 010°50'17213.2
2015-Apr-16 20:33N 55°43' E 007°13'1413.9
2015-Apr-16 19:33N 55°30' E 007°06'1413.8
2015-Apr-16 18:33N 55°16' E 007°03'1413.9
2015-Apr-16 17:34N 55°02' E 007°04'1413.8
2015-Apr-16 16:33N 54°48' E 007°07'1414.0
2015-Apr-16 15:33N 54°34' E 007°11'1414.3
2015-Apr-16 14:33N 54°21' E 007°21'1514.7
2015-Apr-16 13:33N 54°08' E 007°31'1514.6
2015-Apr-16 12:33N 53°55' E 007°43'1211.9
2015-Apr-16 11:33N 53°51' E 008°02'1211.8
2015-Apr-16 10:33N 53°43' E 008°17'10 9.7
2015-Apr-16 09:33N 53°37' E 008°29'3 3.3
2015-Apr-16 08:33N 53°34' E 008°33'0 0.1
2015-Apr-16 07:33N 53°34' E 008°33'0 0.0
2015-Apr-16 06:33N 53°34' E 008°33'0 0.0
2015-Apr-16 05:33N 53°34' E 008°33'0 0.0
2015-Apr-16 04:33N 53°34' E 008°33'0 0.0
2015-Apr-16 03:33N 53°34' E 008°33'0 0.0
2015-Apr-16 02:33N 53°34' E 008°33'0 0.0
2015-Apr-16 01:33N 53°34' E 008°33'0 0.0
2015-Apr-16 00:33N 53°34' E 008°33'0 0.0
2015-Apr-15 23:33N 53°34' E 008°33'0 0.2
2015-Apr-15 22:33N 53°34' E 008°33'0 0.4
2015-Apr-15 21:33N 53°35' E 008°33'0 0.0
2015-Apr-15 20:33N 53°35' E 008°33'0 0.0
2015-Apr-15 19:33N 53°35' E 008°33'0 0.0
2015-Apr-15 18:33N 53°35' E 008°33'0 0.0
2015-Apr-15 17:33N 53°35' E 008°33'0 0.0
2015-Apr-15 16:33N 53°35' E 008°33'0 0.0
2015-Apr-15 15:33N 53°35' E 008°33'0 0.0
2015-Apr-15 14:33N 53°35' E 008°33'0 0.0
2015-Apr-15 13:33N 53°35' E 008°33'0 0.0
2015-Apr-15 12:33N 53°35' E 008°33'0 0.0
2015-Apr-15 11:33N 53°35' E 008°33'0 0.0
2015-Apr-15 10:33N 53°35' E 008°33'0 0.0
2015-Apr-15 09:33N 53°35' E 008°33'0 0.0
2015-Apr-15 08:33N 53°35' E 008°33'0 0.0
2015-Apr-15 07:33N 53°35' E 008°33'0 0.0
2015-Apr-15 06:33N 53°35' E 008°33'0 0.0
2015-Apr-15 05:33N 53°35' E 008°33'0 0.0
2015-Apr-15 04:33N 53°35' E 008°33'0 0.0
2015-Apr-15 03:33N 53°35' E 008°33'0 0.0
2015-Apr-15 02:30N 53°35' E 008°33'0 0.0
2015-Apr-15 01:33N 53°35' E 008°33'0 0.0
2015-Apr-15 00:33N 53°35' E 008°33'0 0.0
2015-Apr-14 23:33N 53°35' E 008°33'0 0.0
2015-Apr-14 22:33N 53°35' E 008°33'0 0.0
2015-Apr-14 21:33N 53°35' E 008°33'0 0.0
2015-Apr-14 20:33N 53°35' E 008°33'0 0.0
2015-Apr-14 19:33N 53°35' E 008°33'0 0.0
2015-Apr-14 18:33N 53°35' E 008°33'0 0.0
2015-Apr-14 17:33N 53°35' E 008°33'0 0.0
2015-Apr-14 16:33N 53°35' E 008°33'0 0.0
2015-Apr-14 15:33N 53°35' E 008°33'0 0.0
2015-Apr-14 14:33N 53°35' E 008°33'0 0.0
2015-Apr-14 13:33N 53°35' E 008°33'0 0.0
2015-Apr-14 12:33N 53°35' E 008°33'0 0.2
2015-Apr-14 11:34N 53°34' E 008°33'0 0.3
2015-Apr-14 10:34N 53°34' E 008°33'4 4.0
2015-Apr-14 09:33N 53°37' E 008°29'10 9.9
2015-Apr-14 08:34N 53°44' E 008°16'1211.7
2015-Apr-14 07:34N 53°51' E 008°01'8 8.2
2015-Apr-14 06:33N 53°55' E 007°48'0 0.1
2015-Apr-14 05:33N 53°55' E 007°48'0 0.0
2015-Apr-14 04:33N 53°55' E 007°48'0 0.0
2015-Apr-14 03:33N 53°55' E 007°48'0 0.0
2015-Apr-14 02:33N 53°55' E 007°48'0 0.0
2015-Apr-14 01:24N 53°55' E 007°48'0 0.0
2015-Apr-14 00:33N 53°55' E 007°48'0 0.0
2015-Apr-13 23:33N 53°55' E 007°48'0 0.0
2015-Apr-13 22:21N 53°55' E 007°48'0 0.1
2015-Apr-13 21:33N 53°55' E 007°48'0 0.0
2015-Apr-13 20:33N 53°55' E 007°48'6 6.5
2015-Apr-13 19:33N 53°55' E 007°37'1312.7
2015-Apr-13 18:33N 53°52' E 007°16'1413.6
2015-Apr-13 17:33N 53°49' E 006°53'1414.1
2015-Apr-13 16:33N 53°46' E 006°30'1414.4
2015-Apr-13 15:33N 53°41' E 006°07'1514.7
2015-Apr-13 14:33N 53°37' E 005°44'1515.1
2015-Apr-13 13:33N 53°33' E 005°19'1414.3
2015-Apr-13 12:33N 53°28' E 004°57'1010.1
2015-Apr-13 11:33N 53°22' E 004°42'1110.5
2015-Apr-13 10:32N 53°13' E 004°35'1212.7
2015-Apr-13 09:33N 53°02' E 004°23'2416.5
2015-Apr-13 08:06N 52°42' E 004°01'1217.3
2015-Apr-13 07:24N 52°34' E 003°47'1517.1
2015-Apr-13 06:33N 52°22' E 003°32'2218.2
2015-Apr-13 05:22N 52°07' E 003°07'3015.2
2015-Apr-13 03:22N 51°45' E 002°34'1315.5
2015-Apr-13 02:33N 51°35' E 002°21'1614.9
2015-Apr-13 01:28N 51°21' E 002°07'1213.5
2015-Apr-13 00:33N 51°11' E 001°57'1514.5
2015-Apr-12 23:34N 51°02' E 001°38'1615.8
2015-Apr-12 22:34N 50°49' E 001°25'9816.0
2015-Apr-12 16:27N 50°10' W 000°57'1817.8
2015-Apr-12 15:25N 50°05' W 001°24'1718.7
2015-Apr-12 14:32N 50°00' W 001°49'1919.3
2015-Apr-12 13:33N 49°56' W 002°18'  
Track history (hours):
 
Tides and Currents Weather Stations Pressure Air Temp Water Temp Dewpoint Dewpoint Depression Visibility Wind Speed Wind Dir Waves Ship Positions

Faust

Last reported at 2015-Apr-18 02:31 UTC. Time now 2015-Apr-18 03:28 UTC.
Position N 57°41' E 011°52'.

Length 227.8 m; beam 32.3 m; draft 9.5 m.

Type: Cargo ship. MMSI: 266260000.

Date/timePositionNaut miles runAvg speedWind from/ knotsBaromVisibWave heightAir tempDewpointWater temp
2015-Apr-18 02:31N 57°41' E 011°52'0 0.0
2015-Apr-18 01:31N 57°41' E 011°52'0 0.0
2015-Apr-18 00:31N 57°41' E 011°52'0 0.0
2015-Apr-17 23:31N 57°41' E 011°52'0 0.0
2015-Apr-17 22:31N 57°41' E 011°52'0 0.0
2015-Apr-17 21:31N 57°41' E 011°52'0 0.0
2015-Apr-17 20:31N 57°41' E 011°52'0 0.0
2015-Apr-17 19:31N 57°41' E 011°52'0 0.0
2015-Apr-17 18:31N 57°41' E 011°52'0 0.0
2015-Apr-17 17:31N 57°41' E 011°52'0 0.0
2015-Apr-17 16:31N 57°41' E 011°52'0 0.0
2015-Apr-17 15:31N 57°41' E 011°52'0 0.0
2015-Apr-17 14:31N 57°41' E 011°52'0 0.0
2015-Apr-17 13:31N 57°41' E 011°52'0 0.4
2015-Apr-17 12:33N 57°41' E 011°51'1010.0
2015-Apr-17 11:34N 57°37' E 011°35'1111.1
2015-Apr-17 10:34N 57°41' E 011°16'1514.8
2015-Apr-17 09:34N 57°47' E 010°50'17213.2
2015-Apr-16 20:33N 55°43' E 007°13'1413.9
2015-Apr-16 19:33N 55°30' E 007°06'1413.8
2015-Apr-16 18:33N 55°16' E 007°03'1413.9
2015-Apr-16 17:34N 55°02' E 007°04'1413.8
2015-Apr-16 16:33N 54°48' E 007°07'1414.0
2015-Apr-16 15:33N 54°34' E 007°11'1414.3
2015-Apr-16 14:33N 54°21' E 007°21'1514.7
2015-Apr-16 13:33N 54°08' E 007°31'1514.6
2015-Apr-16 12:33N 53°55' E 007°43'1211.9
2015-Apr-16 11:33N 53°51' E 008°02'1211.8
2015-Apr-16 10:33N 53°43' E 008°17'10 9.7
2015-Apr-16 09:33N 53°37' E 008°29'3 3.3
2015-Apr-16 08:33N 53°34' E 008°33'0 0.1
2015-Apr-16 07:33N 53°34' E 008°33'0 0.0
2015-Apr-16 06:33N 53°34' E 008°33'0 0.0
2015-Apr-16 05:33N 53°34' E 008°33'0 0.0
2015-Apr-16 04:33N 53°34' E 008°33'0 0.0
2015-Apr-16 03:33N 53°34' E 008°33'0 0.0
2015-Apr-16 02:33N 53°34' E 008°33'0 0.0
2015-Apr-16 01:33N 53°34' E 008°33'0 0.0
2015-Apr-16 00:33N 53°34' E 008°33'0 0.0
2015-Apr-15 23:33N 53°34' E 008°33'0 0.2
2015-Apr-15 22:33N 53°34' E 008°33'0 0.4
2015-Apr-15 21:33N 53°35' E 008°33'0 0.0
2015-Apr-15 20:33N 53°35' E 008°33'0 0.0
2015-Apr-15 19:33N 53°35' E 008°33'0 0.0
2015-Apr-15 18:33N 53°35' E 008°33'0 0.0
2015-Apr-15 17:33N 53°35' E 008°33'0 0.0
2015-Apr-15 16:33N 53°35' E 008°33'0 0.0
2015-Apr-15 15:33N 53°35' E 008°33'0 0.0
2015-Apr-15 14:33N 53°35' E 008°33'0 0.0
2015-Apr-15 13:33N 53°35' E 008°33'0 0.0
2015-Apr-15 12:33N 53°35' E 008°33'0 0.0
2015-Apr-15 11:33N 53°35' E 008°33'0 0.0
2015-Apr-15 10:33N 53°35' E 008°33'0 0.0
2015-Apr-15 09:33N 53°35' E 008°33'0 0.0
2015-Apr-15 08:33N 53°35' E 008°33'0 0.0
2015-Apr-15 07:33N 53°35' E 008°33'0 0.0
2015-Apr-15 06:33N 53°35' E 008°33'0 0.0
2015-Apr-15 05:33N 53°35' E 008°33'0 0.0
2015-Apr-15 04:33N 53°35' E 008°33'0 0.0
2015-Apr-15 03:33N 53°35' E 008°33'0 0.0
2015-Apr-15 02:30N 53°35' E 008°33'0 0.0
2015-Apr-15 01:33N 53°35' E 008°33'0 0.0
2015-Apr-15 00:33N 53°35' E 008°33'0 0.0
2015-Apr-14 23:33N 53°35' E 008°33'0 0.0
2015-Apr-14 22:33N 53°35' E 008°33'0 0.0
2015-Apr-14 21:33N 53°35' E 008°33'0 0.0
2015-Apr-14 20:33N 53°35' E 008°33'0 0.0
2015-Apr-14 19:33N 53°35' E 008°33'0 0.0
2015-Apr-14 18:33N 53°35' E 008°33'0 0.0
2015-Apr-14 17:33N 53°35' E 008°33'0 0.0
2015-Apr-14 16:33N 53°35' E 008°33'0 0.0
2015-Apr-14 15:33N 53°35' E 008°33'0 0.0
2015-Apr-14 14:33N 53°35' E 008°33'0 0.0
2015-Apr-14 13:33N 53°35' E 008°33'0 0.0
2015-Apr-14 12:33N 53°35' E 008°33'0 0.2
2015-Apr-14 11:34N 53°34' E 008°33'0 0.3
2015-Apr-14 10:34N 53°34' E 008°33'4 4.0
2015-Apr-14 09:33N 53°37' E 008°29'10 9.9
2015-Apr-14 08:34N 53°44' E 008°16'1211.7
2015-Apr-14 07:34N 53°51' E 008°01'8 8.2
2015-Apr-14 06:33N 53°55' E 007°48'0 0.1
2015-Apr-14 05:33N 53°55' E 007°48'0 0.0
2015-Apr-14 04:33N 53°55' E 007°48'0 0.0
2015-Apr-14 03:33N 53°55' E 007°48'0 0.0
2015-Apr-14 02:33N 53°55' E 007°48'0 0.0
2015-Apr-14 01:24N 53°55' E 007°48'0 0.0
2015-Apr-14 00:33N 53°55' E 007°48'0 0.0
2015-Apr-13 23:33N 53°55' E 007°48'0 0.0
2015-Apr-13 22:21N 53°55' E 007°48'0 0.1
2015-Apr-13 21:33N 53°55' E 007°48'0 0.0
2015-Apr-13 20:33N 53°55' E 007°48'6 6.5
2015-Apr-13 19:33N 53°55' E 007°37'1312.7
2015-Apr-13 18:33N 53°52' E 007°16'1413.6
2015-Apr-13 17:33N 53°49' E 006°53'1414.1
2015-Apr-13 16:33N 53°46' E 006°30'1414.4
2015-Apr-13 15:33N 53°41' E 006°07'1514.7
2015-Apr-13 14:33N 53°37' E 005°44'1515.1
2015-Apr-13 13:33N 53°33' E 005°19'1414.3
2015-Apr-13 12:33N 53°28' E 004°57'1010.1
2015-Apr-13 11:33N 53°22' E 004°42'1110.5
2015-Apr-13 10:32N 53°13' E 004°35'1212.7
2015-Apr-13 09:33N 53°02' E 004°23'2416.5
2015-Apr-13 08:06N 52°42' E 004°01'1217.3
2015-Apr-13 07:24N 52°34' E 003°47'1517.1
2015-Apr-13 06:33N 52°22' E 003°32'2218.2
2015-Apr-13 05:22N 52°07' E 003°07'3015.2
2015-Apr-13 03:22N 51°45' E 002°34'1315.5
2015-Apr-13 02:33N 51°35' E 002°21'1614.9
2015-Apr-13 01:28N 51°21' E 002°07'1213.5
2015-Apr-13 00:33N 51°11' E 001°57'1514.5
2015-Apr-12 23:34N 51°02' E 001°38'1615.8
2015-Apr-12 22:34N 50°49' E 001°25'9816.0
2015-Apr-12 16:27N 50°10' W 000°57'1817.8
2015-Apr-12 15:25N 50°05' W 001°24'1718.7
2015-Apr-12 14:32N 50°00' W 001°49'1919.3
2015-Apr-12 13:33N 49°56' W 002°18'  

Dump ship's entire track history